createdAt,value
2023-02-14T03:59:24.382Z,20.08
2023-02-14T04:00:24.342Z,20.11
2023-02-14T04:01:24.360Z,20.07
2023-02-14T04:02:24.296Z,20.15
2023-02-14T04:03:24.373Z,20.12
2023-02-14T04:04:24.322Z,20.12
2023-02-14T04:05:24.291Z,20.19
2023-02-14T04:06:24.315Z,20.12
2023-02-14T04:07:24.299Z,20.11
2023-02-14T04:08:24.281Z,20.16
2023-02-14T04:09:24.251Z,20.20
2023-02-14T04:10:24.255Z,20.18
2023-02-14T04:11:24.730Z,20.18
2023-02-14T04:12:37.270Z,20.18
2023-02-14T04:13:24.244Z,20.12
2023-02-14T04:14:24.229Z,20.25
2023-02-14T04:15:24.262Z,20.30
2023-02-14T04:16:24.378Z,20.18
2023-02-14T04:17:24.203Z,20.30
2023-02-14T04:18:24.198Z,20.23
2023-02-14T04:19:24.221Z,20.23
2023-02-14T04:20:24.194Z,20.26
2023-02-14T04:21:24.216Z,20.29
2023-02-14T04:22:24.200Z,20.30
2023-02-14T04:23:24.209Z,20.34
2023-02-14T04:24:24.174Z,20.35
2023-02-14T04:25:24.172Z,20.34
2023-02-14T04:26:24.160Z,20.42
2023-02-14T04:27:24.170Z,20.44
2023-02-14T04:28:24.158Z,20.48
2023-02-14T04:29:24.165Z,20.51
2023-02-14T04:30:24.256Z,20.37
2023-02-14T04:31:24.287Z,20.34
2023-02-14T04:32:24.211Z,20.38
2023-02-14T04:33:24.140Z,20.49
2023-02-14T04:34:24.126Z,20.49
2023-02-14T04:35:24.133Z,20.53
2023-02-14T04:36:24.114Z,20.51
2023-02-14T04:37:24.125Z,20.60
2023-02-14T04:38:24.107Z,20.54
2023-02-14T04:39:24.111Z,20.58
2023-02-14T04:40:24.123Z,20.56
2023-02-14T04:41:24.095Z,20.51
2023-02-14T04:42:24.107Z,20.56
2023-02-14T04:43:24.102Z,20.60
2023-02-14T04:44:24.092Z,20.60
2023-02-14T04:45:24.076Z,20.57
2023-02-14T04:46:24.142Z,20.57
2023-02-14T04:47:24.120Z,20.60
2023-02-14T04:48:24.074Z,20.63
2023-02-14T04:49:24.070Z,20.60
2023-02-14T04:50:24.064Z,20.64
2023-02-14T04:51:25.673Z,20.63
2023-02-14T04:52:24.053Z,20.61
2023-02-14T04:53:24.062Z,20.66
2023-02-14T04:54:24.042Z,20.68
2023-02-14T04:55:24.032Z,20.61
2023-02-14T04:56:24.028Z,20.75
2023-02-14T04:57:24.028Z,20.68
2023-02-14T04:58:24.031Z,20.66
2023-02-14T04:59:25.109Z,20.64
2023-02-14T05:00:24.047Z,20.72
2023-02-14T05:01:24.015Z,20.67
2023-02-14T05:02:24.091Z,20.67
2023-02-14T05:03:24.029Z,20.67
2023-02-14T05:04:24.021Z,20.78
2023-02-14T05:05:24.005Z,20.71
2023-02-14T05:06:23.983Z,20.67
2023-02-14T05:07:24.015Z,20.75
2023-02-14T05:08:23.985Z,20.81
2023-02-14T05:09:23.989Z,20.79
2023-02-14T05:10:23.955Z,20.76
2023-02-14T05:11:23.972Z,20.82
2023-02-14T05:12:23.963Z,20.76
2023-02-14T05:13:23.977Z,20.76
2023-02-14T05:14:23.943Z,20.83
2023-02-14T05:15:23.942Z,20.83
2023-02-14T05:16:23.971Z,20.85
2023-02-14T05:17:23.935Z,20.85
2023-02-14T05:18:23.947Z,20.82
2023-02-14T05:19:23.970Z,20.83
2023-02-14T05:20:23.917Z,20.85
2023-02-14T05:21:23.920Z,20.85
2023-02-14T05:22:23.940Z,20.78
2023-02-14T05:23:23.910Z,20.79
2023-02-14T05:24:23.905Z,20.85
2023-02-14T05:25:23.904Z,20.79
2023-02-14T05:26:23.914Z,20.85
2023-02-14T05:27:23.900Z,20.81
2023-02-14T05:28:23.898Z,20.83
2023-02-14T05:29:23.905Z,20.90
2023-02-14T05:30:24.038Z,20.86
2023-02-14T05:31:24.053Z,20.83
2023-02-14T05:32:23.863Z,20.81
2023-02-14T05:33:23.857Z,20.79
2023-02-14T05:34:23.876Z,20.79
2023-02-14T05:35:23.865Z,20.85
2023-02-14T05:36:23.868Z,20.75
2023-02-14T05:37:23.873Z,20.78
2023-02-14T05:38:23.843Z,20.76
2023-02-14T05:39:23.830Z,20.82
2023-02-14T05:41:23.849Z,20.86
2023-02-14T05:42:23.817Z,20.82
2023-02-14T05:43:23.813Z,20.86
2023-02-14T05:44:23.823Z,20.88
2023-02-14T05:45:23.958Z,20.91
2023-02-14T05:46:23.817Z,20.75
2023-02-14T05:47:23.835Z,20.91
2023-02-14T05:48:23.794Z,20.86
2023-02-14T05:49:23.806Z,20.82
2023-02-14T05:50:23.801Z,20.88
2023-02-14T05:51:23.861Z,20.83
2023-02-14T05:52:23.778Z,20.82
2023-02-14T05:53:23.789Z,20.79
2023-02-14T05:54:23.789Z,20.88
2023-02-14T05:55:23.777Z,20.91
2023-02-14T05:56:23.791Z,20.81
2023-02-14T05:57:23.764Z,20.93
2023-02-14T05:58:23.787Z,20.82
2023-02-14T05:59:23.762Z,20.85
2023-02-14T06:00:23.772Z,20.81
2023-02-14T06:01:23.751Z,20.91
2023-02-14T06:02:23.771Z,20.86
2023-02-14T06:03:23.752Z,20.88
2023-02-14T06:04:23.812Z,20.82
2023-02-14T06:05:23.739Z,20.78
2023-02-14T06:06:23.751Z,20.93
2023-02-14T06:07:23.734Z,20.82
2023-02-14T06:08:23.746Z,20.82
2023-02-14T06:09:23.724Z,20.86
2023-02-14T06:10:23.717Z,20.76
2023-02-14T06:11:23.718Z,20.76
2023-02-14T06:12:23.779Z,20.81
2023-02-14T06:13:23.719Z,20.82
2023-02-14T06:14:23.704Z,20.88
2023-02-14T06:15:23.710Z,20.79
2023-02-14T06:16:23.752Z,20.81
2023-02-14T06:17:23.684Z,20.85
2023-02-14T06:18:23.680Z,20.82
2023-02-14T06:19:23.674Z,20.82
2023-02-14T06:20:23.676Z,20.85
2023-02-14T06:21:23.667Z,20.86
2023-02-14T06:22:23.659Z,20.82
2023-02-14T06:23:23.721Z,20.86
2023-02-14T06:24:23.681Z,20.79
2023-02-14T06:25:23.660Z,20.81
2023-02-14T06:28:56.176Z,20.81
2023-02-14T06:29:56.237Z,20.76
2023-02-14T06:31:31.520Z,20.79
2023-02-14T06:31:56.232Z,20.79
2023-02-14T06:32:56.183Z,20.81
2023-02-14T06:33:56.142Z,20.86
2023-02-14T06:34:56.152Z,20.83
2023-02-14T06:35:56.171Z,20.90
2023-02-14T06:36:56.141Z,20.75
2023-02-14T06:37:56.133Z,20.82
2023-02-14T06:38:56.131Z,20.82
2023-02-14T06:39:56.138Z,20.82
2023-02-14T06:40:56.159Z,20.81
2023-02-14T06:41:56.102Z,20.83
2023-02-14T06:42:56.115Z,20.86
2023-02-14T06:43:56.140Z,20.81
2023-02-14T06:44:56.145Z,20.82
2023-02-14T06:45:56.181Z,20.88
2023-02-14T06:46:56.185Z,20.79
2023-02-14T06:47:56.167Z,20.81
2023-02-14T06:48:56.121Z,20.82
2023-02-14T06:49:56.223Z,20.83
2023-02-14T06:50:56.249Z,20.82
2023-02-14T06:51:56.173Z,20.90
2023-02-14T06:52:56.119Z,20.96
2023-02-14T06:53:56.228Z,20.91
2023-02-14T06:54:56.099Z,20.82
2023-02-14T06:55:56.050Z,20.96
2023-02-14T06:56:56.059Z,20.91
2023-02-14T06:57:56.509Z,20.83
2023-02-14T06:58:56.074Z,20.90
2023-02-14T06:59:56.041Z,20.96
2023-02-14T07:00:56.062Z,20.86
2023-02-14T07:01:56.664Z,20.91
2023-02-14T07:02:56.155Z,20.91
2023-02-14T07:03:56.038Z,20.96
2023-02-14T07:04:56.094Z,20.91
2023-02-14T07:05:56.001Z,20.98
2023-02-14T07:06:56.021Z,20.93
2023-02-14T07:07:56.000Z,20.93
2023-02-14T07:08:55.999Z,20.90
2023-02-14T07:09:55.992Z,20.82
2023-02-14T07:10:56.013Z,20.86
2023-02-14T07:11:55.995Z,20.91
2023-02-14T07:12:55.985Z,20.81
2023-02-14T07:13:55.995Z,20.90
2023-02-14T07:14:56.017Z,20.90
2023-02-14T07:15:56.053Z,20.93
2023-02-14T07:16:55.954Z,20.88
2023-02-14T07:17:55.971Z,20.98
2023-02-14T07:18:55.955Z,20.93
2023-02-14T07:19:55.946Z,20.93
2023-02-14T07:20:55.934Z,20.96
2023-02-14T07:21:55.951Z,20.94
2023-02-14T07:22:55.945Z,20.98
2023-02-14T07:23:55.921Z,20.98
2023-02-14T07:24:55.916Z,21.01
2023-02-14T07:25:55.921Z,20.98
2023-02-14T07:26:55.979Z,20.96
2023-02-14T07:27:55.926Z,20.97
2023-02-14T07:28:55.914Z,20.83
2023-02-14T07:29:55.919Z,21.08
2023-02-14T07:30:56.074Z,20.93
2023-02-14T07:31:56.012Z,21.03
2023-02-14T07:32:55.909Z,20.97
2023-02-14T07:33:55.920Z,21.01
2023-02-14T07:34:55.891Z,20.94
2023-02-14T07:35:55.883Z,21.03
2023-02-14T07:36:55.883Z,21.00
2023-02-14T07:37:55.911Z,21.00
2023-02-14T07:38:55.878Z,21.06
2023-02-14T07:39:55.902Z,21.00
2023-02-14T07:40:55.963Z,21.00
2023-02-14T07:41:55.884Z,21.01
2023-02-14T07:42:55.899Z,20.91
2023-02-14T07:43:55.949Z,20.97
2023-02-14T07:47:54.104Z,21.01
2023-02-14T07:48:54.090Z,21.03
2023-02-14T07:49:54.112Z,20.98
2023-02-14T07:50:54.112Z,21.01
2023-02-14T07:51:54.231Z,21.00
2023-02-14T07:52:54.065Z,20.97
2023-02-14T07:53:54.062Z,21.01
2023-02-14T07:54:54.075Z,21.01
2023-02-14T07:55:54.063Z,21.03
2023-02-14T07:56:54.061Z,21.01
2023-02-14T07:57:54.046Z,21.04
2023-02-14T07:58:54.139Z,21.03
2023-02-14T07:59:54.038Z,20.93
2023-02-14T08:00:54.064Z,21.03
2023-02-14T08:01:54.166Z,21.09
2023-02-14T08:02:54.369Z,21.06
2023-02-14T08:03:55.136Z,21.15
2023-02-14T08:04:54.051Z,21.11
2023-02-14T08:05:54.051Z,21.16
2023-02-14T08:06:54.006Z,21.22
2023-02-14T08:07:54.013Z,21.18
2023-02-14T08:08:54.003Z,21.22
2023-02-14T08:09:54.013Z,21.30
2023-02-14T08:10:54.027Z,21.23
2023-02-14T08:11:54.026Z,21.31
2023-02-14T08:12:53.993Z,21.37
2023-02-14T08:13:53.977Z,21.31
2023-02-14T08:14:53.999Z,21.34
2023-02-14T08:15:54.046Z,21.41
2023-02-14T08:16:53.959Z,21.40
2023-02-14T08:17:53.956Z,21.46
2023-02-14T08:18:53.956Z,21.49
2023-02-14T08:19:54.069Z,21.49
2023-02-14T08:20:53.967Z,21.49
2023-02-14T08:21:53.940Z,21.55
2023-02-14T08:22:53.942Z,21.61
2023-02-14T08:23:53.933Z,21.56
2023-02-14T08:24:54.010Z,21.67
2023-02-14T08:25:54.010Z,21.70
2023-02-14T08:26:53.936Z,21.67
2023-02-14T08:27:53.985Z,21.80
2023-02-14T08:28:53.988Z,21.78
2023-02-14T08:29:54.056Z,21.78
2023-02-14T08:30:54.185Z,21.78
2023-02-14T08:31:55.494Z,21.85
2023-02-14T08:32:55.685Z,21.85
2023-02-14T08:33:53.964Z,21.85
2023-02-14T08:34:53.919Z,21.92
2023-02-14T08:35:53.987Z,21.93
2023-02-14T08:36:54.040Z,21.94
2023-02-14T08:37:53.880Z,21.97
2023-02-14T08:38:53.889Z,22.08
2023-02-14T08:39:53.877Z,22.04
2023-02-14T08:40:53.993Z,22.11
2023-02-14T08:41:53.867Z,22.07
2023-02-14T08:42:54.000Z,22.12
2023-02-14T08:43:53.971Z,22.12
2023-02-14T08:44:54.049Z,22.12
2023-02-14T08:45:53.891Z,22.12
2023-02-14T08:46:53.989Z,22.18
2023-02-14T08:47:53.869Z,22.22
2023-02-14T08:48:54.525Z,22.30
2023-02-14T08:49:53.876Z,22.29
2023-02-14T08:50:53.991Z,22.22
2023-02-14T08:51:54.047Z,22.34
2023-02-14T08:52:53.840Z,22.36
2023-02-14T08:53:54.097Z,22.34
2023-02-14T08:54:54.101Z,22.42
2023-02-14T08:55:53.942Z,22.42
2023-02-14T08:56:53.851Z,22.45
2023-02-14T08:57:53.865Z,22.45
2023-02-14T08:58:53.822Z,22.44
2023-02-14T08:59:53.832Z,22.49
2023-02-14T09:00:53.923Z,22.48
2023-02-14T09:01:53.837Z,22.54
2023-02-14T09:02:53.829Z,22.54
2023-02-14T09:03:53.833Z,22.57
2023-02-14T09:04:53.798Z,22.60
2023-02-14T09:05:53.835Z,22.59
2023-02-14T09:06:53.841Z,22.57
2023-02-14T09:07:53.905Z,22.70
2023-02-14T09:08:53.841Z,22.70
2023-02-14T09:09:53.860Z,22.75
2023-02-14T09:10:53.794Z,22.71
2023-02-14T09:11:53.804Z,22.81
2023-02-14T09:12:53.793Z,22.81
2023-02-14T09:13:53.786Z,22.76
2023-02-14T09:14:53.775Z,22.82
2023-02-14T09:15:53.999Z,22.81
2023-02-14T09:16:53.908Z,22.89
2023-02-14T09:17:53.822Z,22.96
2023-02-14T09:18:53.831Z,22.97
2023-02-14T09:19:53.835Z,22.91
2023-02-14T09:20:53.867Z,23.01
2023-02-14T09:21:53.805Z,23.01
2023-02-14T09:22:53.759Z,23.06
2023-02-14T09:23:53.812Z,23.06
2023-02-14T09:24:53.869Z,23.15
2023-02-14T09:25:53.747Z,23.09
2023-02-14T09:26:53.736Z,23.03
2023-02-14T09:27:53.815Z,23.09
2023-02-14T09:28:53.768Z,23.15
2023-02-14T09:29:53.847Z,23.16
2023-02-14T09:30:54.608Z,23.19
2023-02-14T09:31:53.929Z,23.26
2023-02-14T09:32:53.744Z,23.19
2023-02-14T09:33:53.777Z,23.24
2023-02-14T09:34:53.969Z,23.32
2023-02-14T09:35:53.734Z,23.25
2023-02-14T09:37:53.728Z,23.37
2023-02-14T09:38:53.722Z,23.40
2023-02-14T09:39:53.770Z,23.40
2023-02-14T09:40:53.722Z,23.42
2023-02-14T09:41:53.739Z,23.44
2023-02-14T09:45:26.955Z,23.47
2023-02-14T09:46:26.859Z,23.53
2023-02-14T09:47:26.859Z,23.56
2023-02-14T09:48:28.272Z,23.59
2023-02-14T09:49:26.933Z,23.59
2023-02-14T09:50:26.877Z,23.70
2023-02-14T09:51:26.871Z,23.70
2023-02-14T09:52:26.838Z,23.66
2023-02-14T09:53:26.856Z,23.72
2023-02-14T09:54:26.873Z,23.67
2023-02-14T09:55:26.951Z,23.77
2023-02-14T09:56:26.845Z,23.79
2023-02-14T09:57:26.816Z,23.89
2023-02-14T09:58:27.957Z,23.77
2023-02-14T10:00:26.831Z,23.97
2023-02-14T10:01:26.923Z,23.93
2023-02-14T10:02:26.833Z,23.99
2023-02-14T10:13:42.923Z,24.19
2023-02-14T10:14:42.857Z,24.19
2023-02-14T10:15:42.884Z,24.15
2023-02-14T10:16:43.101Z,24.22
2023-02-14T10:17:42.903Z,24.22
2023-02-14T10:18:42.854Z,24.30
2023-02-14T10:19:42.847Z,24.24
2023-02-14T10:20:42.842Z,24.29
2023-02-14T10:21:42.837Z,24.29
2023-02-14T10:22:42.857Z,24.37
2023-02-14T10:23:42.855Z,24.39
2023-02-14T10:24:42.876Z,24.39
2023-02-14T10:25:42.828Z,24.48
2023-02-14T10:26:42.888Z,24.51
2023-02-14T10:27:43.076Z,24.44
2023-02-14T10:28:43.003Z,24.58
2023-02-14T10:29:43.400Z,24.51
2023-02-14T10:30:43.065Z,24.70
2023-02-14T10:31:43.038Z,24.69
2023-02-14T10:32:42.812Z,24.69
2023-02-14T10:33:42.825Z,24.78
2023-02-14T10:34:42.822Z,24.67
2023-02-14T10:35:42.832Z,24.78
2023-02-14T10:36:42.944Z,24.74
2023-02-14T10:37:42.830Z,24.77
2023-02-14T10:38:43.611Z,24.92
2023-02-14T10:39:43.072Z,24.92
2023-02-14T10:40:43.182Z,25.00
2023-02-14T10:41:42.916Z,25.02
2023-02-14T10:42:42.874Z,25.12
2023-02-14T10:43:42.836Z,25.11
2023-02-14T10:44:42.839Z,25.14
2023-02-14T10:45:42.918Z,25.15
2023-02-14T10:46:42.855Z,25.20
2023-02-14T10:47:42.867Z,25.24
2023-02-14T10:48:43.212Z,25.27
2023-02-14T10:49:42.885Z,25.33
2023-02-14T10:50:42.865Z,25.32
2023-02-14T10:51:42.895Z,25.38
2023-02-14T10:52:42.834Z,25.48
2023-02-14T10:53:42.841Z,25.41
2023-02-14T10:54:42.866Z,25.52
2023-02-14T10:55:42.837Z,25.57
2023-02-14T10:56:42.831Z,25.56
2023-02-14T10:57:42.824Z,25.56
2023-02-14T10:58:42.837Z,25.75
2023-02-14T10:59:42.836Z,25.76
2023-02-14T11:00:42.857Z,25.74
2023-02-14T11:01:42.942Z,25.78
2023-02-14T11:02:43.436Z,25.78
2023-02-14T11:03:44.102Z,25.86
2023-02-14T11:04:42.827Z,25.91
2023-02-14T11:05:46.084Z,25.94
2023-02-14T11:06:42.870Z,25.99
2023-02-14T11:07:42.848Z,25.93
2023-02-14T11:08:42.893Z,25.96
2023-02-14T11:09:42.868Z,25.96
2023-02-14T11:10:42.839Z,25.99
2023-02-14T11:11:42.855Z,26.03
2023-02-14T11:12:42.846Z,26.15
2023-02-14T11:13:42.870Z,26.15
2023-02-14T11:14:42.881Z,26.12
2023-02-14T11:15:42.870Z,26.16
2023-02-14T11:16:42.904Z,26.22
2023-02-14T11:17:42.846Z,26.07
2023-02-14T11:18:42.854Z,26.26
2023-02-14T11:19:42.853Z,26.22
2023-02-14T11:20:42.864Z,26.31
2023-02-14T11:21:42.862Z,26.26
2023-02-14T11:22:42.890Z,26.23
2023-02-14T11:23:42.861Z,26.31
2023-02-14T11:24:42.862Z,26.32
2023-02-14T11:25:42.851Z,26.27
2023-02-14T11:26:42.854Z,26.45
2023-02-14T11:27:42.849Z,26.44
2023-02-14T11:28:42.897Z,26.37
2023-02-14T11:29:42.871Z,26.35
2023-02-14T11:30:42.933Z,26.35
2023-02-14T11:31:43.012Z,26.44
2023-02-14T11:32:42.874Z,26.38
2023-02-14T11:33:42.895Z,26.44
2023-02-14T11:34:42.920Z,26.44
2023-02-14T11:35:42.864Z,26.38
2023-02-14T11:36:42.876Z,26.38
2023-02-14T11:37:42.870Z,26.41
2023-02-14T11:38:42.879Z,26.42
2023-02-14T11:39:42.888Z,26.42
2023-02-14T11:40:42.881Z,26.47
2023-02-14T11:41:42.891Z,26.44
2023-02-14T11:42:42.871Z,26.41
2023-02-14T11:43:42.888Z,26.47
2023-02-14T11:44:42.917Z,26.38
2023-02-14T11:45:43.005Z,26.38
2023-02-14T11:46:52.817Z,26.38
2023-02-14T11:47:42.904Z,26.41
2023-02-14T11:48:42.886Z,26.45
2023-02-14T11:49:42.898Z,26.44
2023-02-14T11:50:42.897Z,26.47
2023-02-14T11:51:42.881Z,26.42
2023-02-14T11:52:42.910Z,26.47
2023-02-14T11:54:42.881Z,26.56
2023-02-14T11:55:42.935Z,26.54
2023-02-14T11:56:42.899Z,26.63
2023-02-14T11:57:42.901Z,26.57
2023-02-14T11:58:43.016Z,26.64
2023-02-14T11:59:42.954Z,26.72
2023-02-14T12:00:42.893Z,26.74
2023-02-14T12:01:42.905Z,26.75
2023-02-14T12:02:42.923Z,26.82
2023-02-14T12:03:42.936Z,26.76
2023-02-14T12:04:46.592Z,26.86
2023-02-14T12:05:42.930Z,26.87
2023-02-14T12:06:42.900Z,26.97
2023-02-14T12:07:42.912Z,27.04
2023-02-14T12:08:42.925Z,27.06
2023-02-14T12:09:42.925Z,27.16
2023-02-14T12:10:42.897Z,27.18
2023-02-14T12:11:42.932Z,27.30
2023-02-14T12:12:42.912Z,27.27
2023-02-14T12:13:42.909Z,27.30
2023-02-14T12:17:16.127Z,27.53
2023-02-14T12:18:16.164Z,27.49
2023-02-14T12:19:16.140Z,27.62
2023-02-14T12:20:16.026Z,27.72
2023-02-14T12:21:16.054Z,27.76
2023-02-14T12:22:16.088Z,27.93
2023-02-14T12:23:16.076Z,27.99
2023-02-14T12:24:16.096Z,28.01
2023-02-14T12:25:16.135Z,28.17
2023-02-14T12:26:16.085Z,28.33
2023-02-14T12:27:16.069Z,28.39
2023-02-14T12:28:16.744Z,28.48
2023-02-14T12:29:16.062Z,28.63
2023-02-14T12:30:16.077Z,28.72
2023-02-14T12:31:16.207Z,28.82
2023-02-14T12:32:16.160Z,28.83
2023-02-14T12:33:16.575Z,28.92
2023-02-14T12:34:16.156Z,29.03
2023-02-14T12:35:17.171Z,29.21
2023-02-14T12:36:16.115Z,29.38
2023-02-14T12:37:16.086Z,29.39
2023-02-14T12:38:16.243Z,29.52
2023-02-14T12:39:16.078Z,29.63
2023-02-14T12:40:16.192Z,29.76
2023-02-14T12:41:16.096Z,29.88
2023-02-14T12:42:16.073Z,29.91
2023-02-14T12:43:16.091Z,30.16
2023-02-14T12:44:16.079Z,30.16
2023-02-14T12:45:16.085Z,30.32
2023-02-14T12:46:16.134Z,30.42
2023-02-14T12:47:16.133Z,30.52
2023-02-14T12:48:16.818Z,30.75
2023-02-14T12:49:16.097Z,30.82
2023-02-14T12:50:16.225Z,30.93
2023-02-14T12:51:16.149Z,30.96
2023-02-14T12:52:16.130Z,31.01
2023-02-14T12:53:16.136Z,31.01
2023-02-14T12:54:16.130Z,31.19
2023-02-14T12:55:16.162Z,31.30
2023-02-14T12:56:16.135Z,31.36
2023-02-14T12:57:16.167Z,31.49
2023-02-14T12:58:16.157Z,31.47
2023-02-14T12:59:16.212Z,31.56
2023-02-14T13:00:16.197Z,31.71
2023-02-14T13:01:24.680Z,31.74
2023-02-14T13:02:16.218Z,31.90
2023-02-14T13:03:16.294Z,31.91
2023-02-14T13:04:16.164Z,32.08
2023-02-14T13:05:16.178Z,32.05
2023-02-14T13:06:16.233Z,32.15
2023-02-14T13:07:16.193Z,32.28
2023-02-14T13:08:16.186Z,32.31
2023-02-14T13:09:16.188Z,32.30
2023-02-14T13:10:16.237Z,32.45
2023-02-14T13:11:16.255Z,32.56
2023-02-14T13:12:16.201Z,32.64
2023-02-14T13:13:16.209Z,32.69
2023-02-14T13:14:16.239Z,32.75
2023-02-14T13:15:17.302Z,32.86
2023-02-14T13:16:18.217Z,32.86
2023-02-14T13:17:17.124Z,32.87
2023-02-14T13:18:16.232Z,33.06
2023-02-14T13:19:16.255Z,33.02
2023-02-14T13:20:16.273Z,33.09
2023-02-14T13:21:16.291Z,33.06
2023-02-14T13:22:16.280Z,33.23
2023-02-14T13:23:16.322Z,33.29
2023-02-14T13:24:16.279Z,33.32
2023-02-14T13:26:16.317Z,33.47
2023-02-14T13:28:16.341Z,33.58
2023-02-14T13:29:16.316Z,33.55
2023-02-14T13:30:16.388Z,33.65
2023-02-14T13:31:16.463Z,33.61
2023-02-14T13:32:16.512Z,33.73
2023-02-14T13:33:16.351Z,33.74
2023-02-14T13:34:16.397Z,33.71
2023-02-14T13:35:16.336Z,33.83
2023-02-14T13:36:16.367Z,33.80
2023-02-14T13:37:16.359Z,33.81
2023-02-14T13:38:16.363Z,33.85
2023-02-14T13:39:16.403Z,33.96
2023-02-14T13:40:16.366Z,33.95
2023-02-14T13:41:16.396Z,33.99
2023-02-14T13:42:16.370Z,33.97
2023-02-14T13:43:16.370Z,34.02
2023-02-14T13:44:16.412Z,34.12
2023-02-14T13:45:16.386Z,34.11
2023-02-14T13:46:16.488Z,34.12
2023-02-14T13:47:16.405Z,34.14
2023-02-14T13:48:16.407Z,34.18
2023-02-14T13:49:16.413Z,34.26
2023-02-14T13:50:16.421Z,34.22
2023-02-14T13:52:16.428Z,34.26
2023-02-14T13:53:16.453Z,34.21
2023-02-14T13:54:18.017Z,34.24
2023-02-14T13:55:16.449Z,34.36
2023-02-14T13:56:16.568Z,34.30
2023-02-14T13:57:16.499Z,34.29
2023-02-14T13:58:16.486Z,34.32
2023-02-14T13:59:16.484Z,34.30
2023-02-14T14:00:16.543Z,34.32
2023-02-14T14:01:16.523Z,34.37
2023-02-14T14:02:16.480Z,34.33
2023-02-14T14:03:16.515Z,34.34
2023-02-14T14:04:16.623Z,34.33
2023-02-14T14:05:16.557Z,34.27
2023-02-14T14:06:16.511Z,34.34
2023-02-14T14:07:16.520Z,34.26
2023-02-14T14:08:16.521Z,34.32
2023-02-14T14:09:16.626Z,34.36
2023-02-14T14:10:16.525Z,34.24
2023-02-14T14:11:16.560Z,34.30
2023-02-14T14:12:16.543Z,34.27
2023-02-14T14:13:16.548Z,34.33
2023-02-14T14:14:16.560Z,34.24
2023-02-14T14:15:16.576Z,34.26
2023-02-14T14:16:16.669Z,34.18
2023-02-14T14:17:16.606Z,34.21
2023-02-14T14:18:16.599Z,34.15
2023-02-14T14:19:16.614Z,34.10
2023-02-14T14:20:16.603Z,34.11
2023-02-14T14:21:16.674Z,34.10
2023-02-14T14:22:16.643Z,34.00
2023-02-14T14:23:16.611Z,34.05
2023-02-14T14:24:16.796Z,33.99
2023-02-14T14:27:49.243Z,33.89
2023-02-14T14:28:49.214Z,33.81
2023-02-14T14:29:49.354Z,33.81
2023-02-14T14:30:49.304Z,33.73
2023-02-14T14:31:49.261Z,33.61
2023-02-14T14:32:49.241Z,33.58
2023-02-14T14:33:49.238Z,33.59
2023-02-14T14:34:49.292Z,33.55
2023-02-14T14:35:49.258Z,33.50
2023-02-14T14:36:49.270Z,33.43
2023-02-14T14:37:49.273Z,33.34
2023-02-14T14:38:49.300Z,33.18
2023-02-14T14:39:49.291Z,33.13
2023-02-14T14:40:50.340Z,33.05
2023-02-14T14:41:49.278Z,33.02
2023-02-14T14:42:49.279Z,32.90
2023-02-14T14:43:49.410Z,32.72
2023-02-14T14:44:50.911Z,32.75
2023-02-14T14:45:49.802Z,32.57
2023-02-14T14:46:50.467Z,32.46
2023-02-14T14:47:49.473Z,32.32
2023-02-14T14:48:49.350Z,32.15
2023-02-14T14:49:49.328Z,32.09
2023-02-14T14:50:49.413Z,31.90
2023-02-14T14:51:49.320Z,31.72
2023-02-14T14:52:49.326Z,31.60
2023-02-14T14:53:49.353Z,31.38
2023-02-14T14:54:49.338Z,31.28
2023-02-14T14:55:49.341Z,31.04
2023-02-14T14:56:49.349Z,30.85
2023-02-14T14:57:49.371Z,30.81
2023-02-14T14:58:49.362Z,30.60
2023-02-14T14:59:49.392Z,30.32
2023-02-14T15:00:49.474Z,30.10
2023-02-14T15:01:49.370Z,30.00
2023-02-14T15:02:49.414Z,29.76
2023-02-14T15:03:49.390Z,29.61
2023-02-14T15:04:49.498Z,29.51
2023-02-14T15:05:49.400Z,29.40
2023-02-14T15:06:49.388Z,29.18
2023-02-14T15:07:49.426Z,29.05
2023-02-14T15:08:49.404Z,28.90
2023-02-14T15:09:49.426Z,28.73
2023-02-14T15:10:50.489Z,28.64
2023-02-14T15:11:49.399Z,28.51
2023-02-14T15:12:49.412Z,28.27
2023-02-14T15:13:49.507Z,28.21
2023-02-14T15:14:49.447Z,27.98
2023-02-14T15:15:49.438Z,28.03
2023-02-14T15:16:49.475Z,27.83
2023-02-14T15:17:49.462Z,27.66
2023-02-14T15:18:49.448Z,27.46
2023-02-14T15:19:49.423Z,27.38
2023-02-14T15:20:49.469Z,27.31
2023-02-14T15:21:49.434Z,27.16
2023-02-14T15:22:49.444Z,27.01
2023-02-14T15:23:49.430Z,26.91
2023-02-14T15:24:49.439Z,26.82
2023-02-14T15:25:49.461Z,26.68
2023-02-14T15:26:50.141Z,26.59
2023-02-14T15:27:49.457Z,26.52
2023-02-14T15:28:49.457Z,26.37
2023-02-14T15:29:49.485Z,26.37
2023-02-14T15:30:49.565Z,26.31
2023-02-14T15:31:49.712Z,26.12
2023-02-14T15:32:49.447Z,25.99
2023-02-14T15:33:49.447Z,25.88
2023-02-14T15:34:49.492Z,25.85
2023-02-14T15:35:49.503Z,25.74
2023-02-14T15:36:49.442Z,25.54
2023-02-14T15:37:49.443Z,25.54
2023-02-14T15:38:49.447Z,25.44
2023-02-14T15:39:49.449Z,25.34
2023-02-14T15:40:49.437Z,25.30
2023-02-14T15:41:49.444Z,25.15
2023-02-14T15:42:49.443Z,25.14
2023-02-14T15:43:49.460Z,25.15
2023-02-14T15:44:49.459Z,25.07
2023-02-14T15:45:49.566Z,24.94
2023-02-14T15:46:49.434Z,24.85
2023-02-14T15:47:49.446Z,24.83
2023-02-14T15:48:49.451Z,24.66
2023-02-14T15:49:49.468Z,24.59
2023-02-14T15:50:49.431Z,24.64
2023-02-14T15:51:49.448Z,24.48
2023-02-14T15:52:49.429Z,24.51
2023-02-14T15:53:49.430Z,24.42
2023-02-14T15:54:49.480Z,24.29
2023-02-14T15:55:49.482Z,24.26
2023-02-14T15:56:49.431Z,24.22
2023-02-14T15:57:49.434Z,24.24
2023-02-14T15:58:49.446Z,24.15
2023-02-14T15:59:49.429Z,24.07
2023-02-14T16:00:49.447Z,24.09
2023-02-14T16:12:51.083Z,23.45
2023-02-14T16:13:51.022Z,23.37
2023-02-14T16:14:51.033Z,23.47
2023-02-14T16:15:51.092Z,23.28
2023-02-14T16:16:51.001Z,23.25
2023-02-14T16:17:51.022Z,23.22
2023-02-14T16:18:51.019Z,23.25
2023-02-14T16:19:51.004Z,23.19
2023-02-14T16:20:51.032Z,23.14
2023-02-14T16:21:51.019Z,23.07
2023-02-14T16:22:50.992Z,23.06
2023-02-14T16:23:50.995Z,23.10
2023-02-14T16:24:50.996Z,23.01
2023-02-14T16:25:51.000Z,23.06
2023-02-14T16:26:50.975Z,23.01
2023-02-14T16:27:51.012Z,22.99
2023-02-14T16:28:50.979Z,22.97
2023-02-14T16:29:51.017Z,23.00
2023-02-14T16:30:51.135Z,22.86
2023-02-14T16:32:15.664Z,22.85
2023-02-14T16:32:50.972Z,22.85
2023-02-14T16:33:50.947Z,22.78
2023-02-14T16:34:50.954Z,22.70
2023-02-14T16:35:50.986Z,22.69
2023-02-14T16:36:50.943Z,22.67
2023-02-14T16:37:50.939Z,22.71
2023-02-14T16:38:50.963Z,22.67
2023-02-14T16:39:50.944Z,22.60
2023-02-14T16:40:50.934Z,22.61
2023-02-14T16:41:50.952Z,22.61
2023-02-14T16:42:50.953Z,22.57
2023-02-14T16:43:50.953Z,22.55
2023-02-14T16:44:50.939Z,22.61
2023-02-14T16:45:50.969Z,22.46
2023-02-14T16:46:51.024Z,22.48
2023-02-14T16:47:50.935Z,22.45
2023-02-14T16:48:50.910Z,22.44
2023-02-14T16:49:50.904Z,22.46
2023-02-14T16:50:50.927Z,22.45
2023-02-14T16:51:50.925Z,22.39
2023-02-14T16:52:50.919Z,22.42
2023-02-14T16:53:50.908Z,22.34
2023-02-14T16:54:50.923Z,22.39
2023-02-14T16:55:50.898Z,22.34
2023-02-14T16:56:50.892Z,22.34
2023-02-14T16:57:50.895Z,22.30
2023-02-14T16:58:50.911Z,22.26
2023-02-14T16:59:50.884Z,22.31
2023-02-14T17:00:50.891Z,22.29
2023-02-14T17:01:50.910Z,22.16
2023-02-14T17:02:50.948Z,22.30
2023-02-14T17:03:50.885Z,22.27
2023-02-14T17:04:50.860Z,22.14
2023-02-14T17:05:50.866Z,22.18
2023-02-14T17:06:50.861Z,22.09
2023-02-14T17:07:50.869Z,22.15
2023-02-14T17:08:50.878Z,22.07
2023-02-14T17:09:50.844Z,22.18
2023-02-14T17:10:50.838Z,22.15
2023-02-14T17:11:50.837Z,22.12
2023-02-14T17:12:50.838Z,22.12
2023-02-14T17:13:50.852Z,22.11
2023-02-14T17:14:50.833Z,22.11
2023-02-14T17:15:50.895Z,22.12
2023-02-14T17:16:50.884Z,22.15
2023-02-14T17:17:50.822Z,22.00
2023-02-14T17:18:50.823Z,22.08
2023-02-14T17:19:52.752Z,21.97
2023-02-14T17:20:50.827Z,21.96
2023-02-14T17:21:50.811Z,22.00
2023-02-14T17:22:50.816Z,21.94
2023-02-14T17:23:50.821Z,21.90
2023-02-14T17:24:50.826Z,21.93
2023-02-14T17:25:50.800Z,21.97
2023-02-14T17:26:50.787Z,21.96
2023-02-14T17:27:50.787Z,21.93
2023-02-14T17:28:50.802Z,21.90
2023-02-14T17:29:50.794Z,21.89
2023-02-14T17:30:50.992Z,21.89
2023-02-14T17:31:50.848Z,21.86
2023-02-14T17:32:50.802Z,21.77